sensor_id;sensor_type;location;lat;lon;timestamp;pressure;altitude;pressure_sealevel;temperature;humidity
68137;BME280;54939;50.826;9.030;2022-12-18T00:00:00;99992.31;;;0.56;65.38
68137;BME280;54939;50.826;9.030;2022-12-18T00:00:31;99992.41;;;0.54;65.35
68137;BME280;54939;50.826;9.030;2022-12-18T00:01:02;99988.06;;;0.53;65.34
68137;BME280;54939;50.826;9.030;2022-12-18T00:01:36;99991.59;;;0.52;65.26
68137;BME280;54939;50.826;9.030;2022-12-18T00:02:06;99992.56;;;0.50;65.41
68137;BME280;54939;50.826;9.030;2022-12-18T00:02:37;99991.72;;;0.49;65.10
68137;BME280;54939;50.826;9.030;2022-12-18T00:03:07;99992.47;;;0.53;65.01
68137;BME280;54939;50.826;9.030;2022-12-18T00:03:37;99992.56;;;0.50;64.90
68137;BME280;54939;50.826;9.030;2022-12-18T00:04:11;99988.22;;;0.49;65.72
68137;BME280;54939;50.826;9.030;2022-12-18T00:04:45;99984.69;;;0.50;65.15
68137;BME280;54939;50.826;9.030;2022-12-18T00:05:15;99989.16;;;0.48;65.31
68137;BME280;54939;50.826;9.030;2022-12-18T00:05:48;99989.94;;;0.50;65.79
68137;BME280;54939;50.826;9.030;2022-12-18T00:06:19;99981.16;;;0.51;65.54
68137;BME280;54939;50.826;9.030;2022-12-18T00:06:49;99983.78;;;0.51;65.24
68137;BME280;54939;50.826;9.030;2022-12-18T00:07:20;99985.50;;;0.52;65.61
68137;BME280;54939;50.826;9.030;2022-12-18T00:07:50;99980.13;;;0.55;65.39
68137;BME280;54939;50.826;9.030;2022-12-18T00:08:20;99991.56;;;0.54;65.94
68137;BME280;54939;50.826;9.030;2022-12-18T00:08:50;99989.78;;;0.54;65.24
68137;BME280;54939;50.826;9.030;2022-12-18T00:09:21;99984.56;;;0.53;65.69
68137;BME280;54939;50.826;9.030;2022-12-18T00:09:51;99988.97;;;0.52;65.59
68137;BME280;54939;50.826;9.030;2022-12-18T00:10:21;99993.19;;;0.56;65.44
68137;BME280;54939;50.826;9.030;2022-12-18T00:10:51;99996.56;;;0.60;65.21
68137;BME280;54939;50.826;9.030;2022-12-18T00:11:22;99990.41;;;0.61;64.82
68137;BME280;54939;50.826;9.030;2022-12-18T00:11:53;99993.13;;;0.58;64.71
68137;BME280;54939;50.826;9.030;2022-12-18T00:12:23;99998.44;;;0.56;65.33
68137;BME280;54939;50.826;9.030;2022-12-18T00:12:53;99991.50;;;0.55;65.51
68137;BME280;54939;50.826;9.030;2022-12-18T00:13:24;99993.19;;;0.56;65.18
68137;BME280;54939;50.826;9.030;2022-12-18T00:13:54;99996.75;;;0.55;65.11
68137;BME280;54939;50.826;9.030;2022-12-18T00:14:25;99998.44;;;0.56;64.65
68137;BME280;54939;50.826;9.030;2022-12-18T00:14:55;99997.78;;;0.51;64.90
68137;BME280;54939;50.826;9.030;2022-12-18T00:15:27;100000.44;;;0.50;65.27
68137;BME280;54939;50.826;9.030;2022-12-18T00:16:05;99994.22;;;0.52;64.99
68137;BME280;54939;50.826;9.030;2022-12-18T00:16:35;99998.56;;;0.53;65.31
68137;BME280;54939;50.826;9.030;2022-12-18T00:17:06;100004.69;;;0.54;65.07
68137;BME280;54939;50.826;9.030;2022-12-18T00:17:36;100001.25;;;0.52;64.76
68137;BME280;54939;50.826;9.030;2022-12-18T00:18:07;100003.81;;;0.53;65.47
68137;BME280;54939;50.826;9.030;2022-12-18T00:18:37;99998.44;;;0.56;65.24
68137;BME280;54939;50.826;9.030;2022-12-18T00:19:08;100001.16;;;0.55;65.24
68137;BME280;54939;50.826;9.030;2022-12-18T00:19:38;100001.06;;;0.56;64.92
68137;BME280;54939;50.826;9.030;2022-12-18T00:20:09;100005.47;;;0.56;65.38
68137;BME280;54939;50.826;9.030;2022-12-18T00:20:39;99998.53;;;0.55;65.20
68137;BME280;54939;50.826;9.030;2022-12-18T00:21:10;100008.91;;;0.58;65.16
68137;BME280;54939;50.826;9.030;2022-12-18T00:21:41;100010.63;;;0.59;65.02
68137;BME280;54939;50.826;9.030;2022-12-18T00:22:11;99998.44;;;0.56;64.94
68137;BME280;54939;50.826;9.030;2022-12-18T00:22:41;100002.84;;;0.56;65.25
68137;BME280;54939;50.826;9.030;2022-12-18T00:23:11;100002.84;;;0.56;65.32
68137;BME280;54939;50.826;9.030;2022-12-18T00:23:42;100005.53;;;0.54;64.58
68137;BME280;54939;50.826;9.030;2022-12-18T00:24:13;100001.25;;;0.52;65.16
68137;BME280;54939;50.826;9.030;2022-12-18T00:24:43;100008.16;;;0.54;65.08
68137;BME280;54939;50.826;9.030;2022-12-18T00:25:13;100004.78;;;0.51;65.04
68137;BME280;54939;50.826;9.030;2022-12-18T00:25:43;100011.81;;;0.50;64.98
68137;BME280;54939;50.826;9.030;2022-12-18T00:26:32;100007.56;;;0.48;65.48
68137;BME280;54939;50.826;9.030;2022-12-18T00:27:03;100008.47;;;0.47;65.35
68137;BME280;54939;50.826;9.030;2022-12-18T00:27:33;100005.94;;;0.44;64.95
68137;BME280;54939;50.826;9.030;2022-12-18T00:28:04;100009.38;;;0.46;65.12
68137;BME280;54939;50.826;9.030;2022-12-18T00:28:34;100009.38;;;0.46;65.09
68137;BME280;54939;50.826;9.030;2022-12-18T00:29:06;100010.28;;;0.45;65.69
68137;BME280;54939;50.826;9.030;2022-12-18T00:29:36;100002.41;;;0.45;64.71
68137;BME280;54939;50.826;9.030;2022-12-18T00:30:07;100005.94;;;0.44;65.30
68137;BME280;54939;50.826;9.030;2022-12-18T00:30:37;100011.88;;;0.49;65.38
68137;BME280;54939;50.826;9.030;2022-12-18T00:31:08;100011.94;;;0.47;64.54
68137;BME280;54939;50.826;9.030;2022-12-18T00:31:39;100006.69;;;0.47;65.31
68137;BME280;54939;50.826;9.030;2022-12-18T00:32:09;100012.00;;;0.46;65.14
68137;BME280;54939;50.826;9.030;2022-12-18T00:32:40;100009.31;;;0.47;64.73
68137;BME280;54939;50.826;9.030;2022-12-18T00:33:10;100004.84;;;0.49;65.38
68137;BME280;54939;50.826;9.030;2022-12-18T00:33:40;100000.53;;;0.48;65.27
68137;BME280;54939;50.826;9.030;2022-12-18T00:34:11;100003.06;;;0.50;64.65
68137;BME280;54939;50.826;9.030;2022-12-18T00:34:41;100017.06;;;0.50;65.20
68137;BME280;54939;50.826;9.030;2022-12-18T00:35:12;100003.03;;;0.51;65.35
68137;BME280;54939;50.826;9.030;2022-12-18T00:35:42;100006.47;;;0.53;64.89
68137;BME280;54939;50.826;9.030;2022-12-18T00:36:13;100006.47;;;0.53;65.27
68137;BME280;54939;50.826;9.030;2022-12-18T00:36:44;100019.59;;;0.53;64.76
68137;BME280;54939;50.826;9.030;2022-12-18T00:37:14;100017.69;;;0.57;65.11
68137;BME280;54939;50.826;9.030;2022-12-18T00:37:44;100009.81;;;0.57;64.64
68137;BME280;54939;50.826;9.030;2022-12-18T00:38:14;100014.16;;;0.58;64.54
68137;BME280;54939;50.826;9.030;2022-12-18T00:38:44;100008.91;;;0.58;64.79
68137;BME280;54939;50.826;9.030;2022-12-18T00:39:15;100008.94;;;0.56;65.03
68137;BME280;54939;50.826;9.030;2022-12-18T00:39:45;100011.56;;;0.56;64.95
68137;BME280;54939;50.826;9.030;2022-12-18T00:40:17;100004.63;;;0.55;64.33
68137;BME280;54939;50.826;9.030;2022-12-18T00:40:47;100006.47;;;0.53;64.47
68137;BME280;54939;50.826;9.030;2022-12-18T00:41:18;99999.47;;;0.52;64.62
68137;BME280;54939;50.826;9.030;2022-12-18T00:42:09;100000.34;;;0.53;65.19
68137;BME280;54939;50.826;9.030;2022-12-18T00:42:58;99994.22;;;0.52;65.02
68137;BME280;54939;50.826;9.030;2022-12-18T00:43:28;99995.94;;;0.53;64.62
68137;BME280;54939;50.826;9.030;2022-12-18T00:43:59;99989.03;;;0.51;64.48
68137;BME280;54939;50.826;9.030;2022-12-18T00:44:29;99985.53;;;0.50;64.41
68137;BME280;54939;50.826;9.030;2022-12-18T00:44:59;99991.59;;;0.52;64.63
68137;BME280;54939;50.826;9.030;2022-12-18T00:45:29;99991.66;;;0.51;64.96
68137;BME280;54939;50.826;9.030;2022-12-18T00:46:00;99987.22;;;0.53;64.93
68137;BME280;54939;50.826;9.030;2022-12-18T00:46:30;99988.91;;;0.54;64.88
68137;BME280;54939;50.826;9.030;2022-12-18T00:47:01;99990.63;;;0.55;64.59
68137;BME280;54939;50.826;9.030;2022-12-18T00:47:31;99989.78;;;0.54;64.85
68137;BME280;54939;50.826;9.030;2022-12-18T00:48:01;99984.56;;;0.53;64.56
68137;BME280;54939;50.826;9.030;2022-12-18T00:48:31;99988.13;;;0.52;64.23
68137;BME280;54939;50.826;9.030;2022-12-18T00:49:02;99979.44;;;0.50;64.34
68137;BME280;54939;50.826;9.030;2022-12-18T00:49:32;99989.09;;;0.49;65.18
68137;BME280;54939;50.826;9.030;2022-12-18T00:50:03;99984.69;;;0.50;64.68
68137;BME280;54939;50.826;9.030;2022-12-18T00:50:33;99992.50;;;0.51;64.37
68137;BME280;54939;50.826;9.030;2022-12-18T00:51:03;99978.41;;;0.54;64.58
68137;BME280;54939;50.826;9.030;2022-12-18T00:51:33;99991.50;;;0.55;64.72
68137;BME280;54939;50.826;9.030;2022-12-18T00:52:04;99991.34;;;0.58;64.68
68137;BME280;54939;50.826;9.030;2022-12-18T00:52:34;99988.72;;;0.58;64.54
68137;BME280;54939;50.826;9.030;2022-12-18T00:53:04;99992.22;;;0.59;64.69
68137;BME280;54939;50.826;9.030;2022-12-18T00:53:34;99992.22;;;0.59;65.00
68137;BME280;54939;50.826;9.030;2022-12-18T00:54:05;99999.13;;;0.61;64.78
68137;BME280;54939;50.826;9.030;2022-12-18T00:54:35;99995.81;;;0.56;64.21
68137;BME280;54939;50.826;9.030;2022-12-18T00:55:05;99992.31;;;0.56;64.66
68137;BME280;54939;50.826;9.030;2022-12-18T00:55:37;99985.25;;;0.58;64.80
68137;BME280;54939;50.826;9.030;2022-12-18T00:56:07;99990.50;;;0.58;64.37
68137;BME280;54939;50.826;9.030;2022-12-18T00:56:37;99991.41;;;0.57;64.77
68137;BME280;54939;50.826;9.030;2022-12-18T00:57:08;99987.16;;;0.54;64.18
68137;BME280;54939;50.826;9.030;2022-12-18T00:57:38;99990.63;;;0.55;64.64
68137;BME280;54939;50.826;9.030;2022-12-18T00:58:08;99993.31;;;0.53;64.75
68137;BME280;54939;50.826;9.030;2022-12-18T00:58:39;99992.47;;;0.53;64.57
68137;BME280;54939;50.826;9.030;2022-12-18T00:59:09;99994.22;;;0.52;64.13
68137;BME280;54939;50.826;9.030;2022-12-18T00:59:39;99988.97;;;0.52;64.50
68137;BME280;54939;50.826;9.030;2022-12-18T01:00:11;99985.50;;;0.52;64.25
68137;BME280;54939;50.826;9.030;2022-12-18T01:00:43;99997.78;;;0.51;64.28
68137;BME280;54939;50.826;9.030;2022-12-18T01:01:13;99993.38;;;0.52;64.49
68137;BME280;54939;50.826;9.030;2022-12-18T01:01:43;99994.22;;;0.52;64.31
68137;BME280;54939;50.826;9.030;2022-12-18T01:02:14;99994.28;;;0.51;64.73
68137;BME280;54939;50.826;9.030;2022-12-18T01:02:44;100009.25;;;0.49;64.77
68137;BME280;54939;50.826;9.030;2022-12-18T01:03:14;100014.44;;;0.50;64.55
68137;BME280;54939;50.826;9.030;2022-12-18T01:03:45;100008.28;;;0.51;64.31
68137;BME280;54939;50.826;9.030;2022-12-18T01:04:16;100005.66;;;0.51;64.83
68137;BME280;54939;50.826;9.030;2022-12-18T01:04:46;100009.13;;;0.52;64.41
68137;BME280;54939;50.826;9.030;2022-12-18T01:05:19;100012.56;;;0.54;64.33
68137;BME280;54939;50.826;9.030;2022-12-18T01:05:49;100007.31;;;0.54;63.92
68137;BME280;54939;50.826;9.030;2022-12-18T01:06:20;100009.13;;;0.52;64.70
68137;BME280;54939;50.826;9.030;2022-12-18T01:06:50;100018.78;;;0.51;64.95
68137;BME280;54939;50.826;9.030;2022-12-18T01:07:20;100014.50;;;0.49;64.33
68137;BME280;54939;50.826;9.030;2022-12-18T01:07:50;100013.66;;;0.48;64.47
68137;BME280;54939;50.826;9.030;2022-12-18T01:08:21;100010.97;;;0.50;64.36
68137;BME280;54939;50.826;9.030;2022-12-18T01:08:51;100014.44;;;0.50;64.41
68137;BME280;54939;50.826;9.030;2022-12-18T01:09:21;100009.09;;;0.53;64.29
68137;BME280;54939;50.826;9.030;2022-12-18T01:09:51;100007.31;;;0.54;64.58
68137;BME280;54939;50.826;9.030;2022-12-18T01:10:21;100010.81;;;0.54;64.03
68137;BME280;54939;50.826;9.030;2022-12-18T01:10:52;100004.69;;;0.54;64.57
68137;BME280;54939;50.826;9.030;2022-12-18T01:11:22;100012.53;;;0.55;64.08
68137;BME280;54939;50.826;9.030;2022-12-18T01:11:52;100005.53;;;0.54;63.92
68137;BME280;54939;50.826;9.030;2022-12-18T01:12:23;100012.56;;;0.54;64.33
68137;BME280;54939;50.826;9.030;2022-12-18T01:12:53;100009.13;;;0.52;64.42
68137;BME280;54939;50.826;9.030;2022-12-18T01:13:23;100006.50;;;0.52;64.62
68137;BME280;54939;50.826;9.030;2022-12-18T01:13:54;100011.53;;;0.58;64.64
68137;BME280;54939;50.826;9.030;2022-12-18T01:14:25;100002.91;;;0.54;64.05
68137;BME280;54939;50.826;9.030;2022-12-18T01:14:55;100012.56;;;0.54;64.62
68137;BME280;54939;50.826;9.030;2022-12-18T01:15:25;100009.94;;;0.54;64.75
68137;BME280;54939;50.826;9.030;2022-12-18T01:15:55;100020.44;;;0.54;64.61
68137;BME280;54939;50.826;9.030;2022-12-18T01:16:25;100023.03;;;0.55;64.31
68137;BME280;54939;50.826;9.030;2022-12-18T01:16:56;100018.78;;;0.51;64.56
68137;BME280;54939;50.826;9.030;2022-12-18T01:17:26;100020.56;;;0.51;64.23
68137;BME280;54939;50.826;9.030;2022-12-18T01:17:56;100016.22;;;0.50;64.20
68137;BME280;54939;50.826;9.030;2022-12-18T01:18:26;100016.34;;;0.47;64.36
68137;BME280;54939;50.826;9.030;2022-12-18T01:18:57;100011.09;;;0.47;64.62
68137;BME280;54939;50.826;9.030;2022-12-18T01:19:27;100007.66;;;0.45;64.15
68137;BME280;54939;50.826;9.030;2022-12-18T01:19:57;100018.97;;;0.47;64.60
68137;BME280;54939;50.826;9.030;2022-12-18T01:20:27;100016.34;;;0.47;65.24
68137;BME280;54939;50.826;9.030;2022-12-18T01:20:58;100012.97;;;0.43;64.20
68137;BME280;54939;50.826;9.030;2022-12-18T01:21:28;100018.16;;;0.45;64.40
68137;BME280;54939;50.826;9.030;2022-12-18T01:21:58;100016.41;;;0.45;64.79
68137;BME280;54939;50.826;9.030;2022-12-18T01:22:28;100017.22;;;0.47;64.53
68137;BME280;54939;50.826;9.030;2022-12-18T01:22:59;100014.63;;;0.46;64.43
68137;BME280;54939;50.826;9.030;2022-12-18T01:23:29;100019.75;;;0.49;63.97
68137;BME280;54939;50.826;9.030;2022-12-18T01:23:59;100020.59;;;0.49;64.76
68137;BME280;54939;50.826;9.030;2022-12-18T01:24:29;100027.63;;;0.49;64.35
68137;BME280;54939;50.826;9.030;2022-12-18T01:24:59;100021.47;;;0.50;63.97
68137;BME280;54939;50.826;9.030;2022-12-18T01:25:29;100032.72;;;0.53;64.10
68137;BME280;54939;50.826;9.030;2022-12-18T01:26:10;100022.28;;;0.52;64.56
68137;BME280;54939;50.826;9.030;2022-12-18T01:26:40;100026.56;;;0.54;64.54
68137;BME280;54939;50.826;9.030;2022-12-18T01:27:10;100020.41;;;0.55;63.97
68137;BME280;54939;50.826;9.030;2022-12-18T01:27:41;100021.38;;;0.53;63.92
68137;BME280;54939;50.826;9.030;2022-12-18T01:28:11;100024.00;;;0.53;64.18
68137;BME280;54939;50.826;9.030;2022-12-18T01:28:41;100016.22;;;0.50;64.31
68137;BME280;54939;50.826;9.030;2022-12-18T01:29:12;100024.91;;;0.52;63.51
68137;BME280;54939;50.826;9.030;2022-12-18T01:29:42;100015.25;;;0.52;64.17
68137;BME280;54939;50.826;9.030;2022-12-18T01:30:12;100015.34;;;0.49;63.89
68137;BME280;54939;50.826;9.030;2022-12-18T01:30:42;100012.81;;;0.48;64.21
68137;BME280;54939;50.826;9.030;2022-12-18T01:31:20;100018.94;;;0.48;64.45
68137;BME280;54939;50.826;9.030;2022-12-18T01:31:50;100022.47;;;0.47;64.37
68137;BME280;54939;50.826;9.030;2022-12-18T01:32:20;100017.06;;;0.50;64.17
68137;BME280;54939;50.826;9.030;2022-12-18T01:32:50;100020.69;;;0.48;64.38
68137;BME280;54939;50.826;9.030;2022-12-18T01:33:20;100018.13;;;0.46;64.29
68137;BME280;54939;50.826;9.030;2022-12-18T01:33:51;100015.53;;;0.45;64.85
68137;BME280;54939;50.826;9.030;2022-12-18T01:34:21;100017.31;;;0.44;64.50
68137;BME280;54939;50.826;9.030;2022-12-18T01:34:51;100020.69;;;0.48;64.13
68137;BME280;54939;50.826;9.030;2022-12-18T01:35:22;100018.94;;;0.48;63.94
68137;BME280;54939;50.826;9.030;2022-12-18T01:35:52;100018.84;;;0.50;64.44
68137;BME280;54939;50.826;9.030;2022-12-18T01:36:26;100019.75;;;0.49;64.24
68137;BME280;54939;50.826;9.030;2022-12-18T01:36:57;100024.00;;;0.53;64.22
68137;BME280;54939;50.826;9.030;2022-12-18T01:37:27;100017.88;;;0.52;64.49
68137;BME280;54939;50.826;9.030;2022-12-18T01:37:57;100015.25;;;0.52;64.35
68137;BME280;54939;50.826;9.030;2022-12-18T01:38:28;100017.94;;;0.51;64.56
68137;BME280;54939;50.826;9.030;2022-12-18T01:39:02;100017.22;;;0.47;63.94
68137;BME280;54939;50.826;9.030;2022-12-18T01:39:32;100012.81;;;0.48;64.23
68137;BME280;54939;50.826;9.030;2022-12-18T01:40:03;100014.69;;;0.44;64.04
68137;BME280;54939;50.826;9.030;2022-12-18T01:40:33;100018.13;;;0.46;64.07
68137;BME280;54939;50.826;9.030;2022-12-18T01:41:03;100017.25;;;0.46;64.56
68137;BME280;54939;50.826;9.030;2022-12-18T01:41:34;100016.34;;;0.47;64.42
68137;BME280;54939;50.826;9.030;2022-12-18T01:42:22;100018.06;;;0.48;64.21
68137;BME280;54939;50.826;9.030;2022-12-18T01:42:53;100014.50;;;0.49;64.59
68137;BME280;54939;50.826;9.030;2022-12-18T01:43:40;100020.59;;;0.49;64.27
68137;BME280;54939;50.826;9.030;2022-12-18T01:45:03;100018.78;;;0.51;63.62
68137;BME280;54939;50.826;9.030;2022-12-18T01:45:34;100018.94;;;0.48;64.77
68137;BME280;54939;50.826;9.030;2022-12-18T01:46:04;100016.16;;;0.51;64.07
68137;BME280;54939;50.826;9.030;2022-12-18T01:46:34;100020.50;;;0.52;63.68
68137;BME280;54939;50.826;9.030;2022-12-18T01:47:05;100016.22;;;0.50;63.42
68137;BME280;54939;50.826;9.030;2022-12-18T01:48:20;100016.22;;;0.50;63.93
68137;BME280;54939;50.826;9.030;2022-12-18T01:48:52;100013.66;;;0.48;63.65
68137;BME280;54939;50.826;9.030;2022-12-18T01:49:22;100011.09;;;0.47;64.32
68137;BME280;54939;50.826;9.030;2022-12-18T01:49:53;100006.69;;;0.47;64.31
68137;BME280;54939;50.826;9.030;2022-12-18T01:50:25;100007.59;;;0.46;64.20
68137;BME280;54939;50.826;9.030;2022-12-18T01:50:57;100015.50;;;0.46;64.32
68137;BME280;54939;50.826;9.030;2022-12-18T01:51:28;100009.38;;;0.46;64.54
68137;BME280;54939;50.826;9.030;2022-12-18T01:51:59;100008.47;;;0.47;64.26
68137;BME280;54939;50.826;9.030;2022-12-18T01:52:31;100017.22;;;0.47;63.92
68137;BME280;54939;50.826;9.030;2022-12-18T01:53:35;100010.97;;;0.50;64.25
68137;BME280;54939;50.826;9.030;2022-12-18T01:54:06;100014.44;;;0.50;64.23
68137;BME280;54939;50.826;9.030;2022-12-18T01:54:36;100020.59;;;0.49;64.40
68137;BME280;54939;50.826;9.030;2022-12-18T01:55:06;100019.75;;;0.49;64.09
68137;BME280;54939;50.826;9.030;2022-12-18T01:55:47;100016.34;;;0.47;63.88
68137;BME280;54939;50.826;9.030;2022-12-18T01:56:19;100009.38;;;0.46;64.06
68137;BME280;54939;50.826;9.030;2022-12-18T01:56:49;100009.38;;;0.46;63.60
68137;BME280;54939;50.826;9.030;2022-12-18T01:57:20;100012.91;;;0.45;64.12
68137;BME280;54939;50.826;9.030;2022-12-18T01:57:51;100002.31;;;0.48;64.60
68137;BME280;54939;50.826;9.030;2022-12-18T01:59:11;100000.53;;;0.48;64.32
68137;BME280;54939;50.826;9.030;2022-12-18T01:59:41;100003.16;;;0.48;64.60
68137;BME280;54939;50.826;9.030;2022-12-18T02:00:14;100000.53;;;0.48;64.53
68137;BME280;54939;50.826;9.030;2022-12-18T02:00:45;100003.97;;;0.49;64.24
68137;BME280;54939;50.826;9.030;2022-12-18T02:01:16;99998.56;;;0.53;63.99
68137;BME280;54939;50.826;9.030;2022-12-18T02:01:46;100002.97;;;0.53;64.12
68137;BME280;54939;50.826;9.030;2022-12-18T02:02:16;99996.91;;;0.51;63.62
68137;BME280;54939;50.826;9.030;2022-12-18T02:02:47;99996.00;;;0.52;64.06
68137;BME280;54939;50.826;9.030;2022-12-18T02:03:17;99994.94;;;0.56;64.06
68137;BME280;54939;50.826;9.030;2022-12-18T02:03:48;99998.56;;;0.53;64.19
68137;BME280;54939;50.826;9.030;2022-12-18T02:04:24;99994.22;;;0.52;64.29
68137;BME280;54939;50.826;9.030;2022-12-18T02:04:55;99996.06;;;0.50;63.54
68137;BME280;54939;50.826;9.030;2022-12-18T02:05:31;99989.94;;;0.50;64.13
68137;BME280;54939;50.826;9.030;2022-12-18T02:06:19;99990.84;;;0.49;64.41
68137;BME280;54939;50.826;9.030;2022-12-18T02:07:03;99993.47;;;0.49;63.95
68137;BME280;54939;50.826;9.030;2022-12-18T02:09:10;100000.44;;;0.50;64.16
68137;BME280;54939;50.826;9.030;2022-12-18T02:09:44;100008.28;;;0.51;64.27
68137;BME280;54939;50.826;9.030;2022-12-18T02:10:24;100003.88;;;0.52;63.59
68137;BME280;54939;50.826;9.030;2022-12-18T02:11:06;100008.91;;;0.58;63.71
68137;BME280;54939;50.826;9.030;2022-12-18T02:11:42;100002.06;;;0.54;64.05
68137;BME280;54939;50.826;9.030;2022-12-18T02:12:19;100017.06;;;0.50;64.39
68137;BME280;54939;50.826;9.030;2022-12-18T02:12:53;100012.66;;;0.51;63.62
68137;BME280;54939;50.826;9.030;2022-12-18T02:13:37;100022.38;;;0.49;63.95
68137;BME280;54939;50.826;9.030;2022-12-18T02:14:14;100011.88;;;0.49;63.91
68137;BME280;54939;50.826;9.030;2022-12-18T02:16:00;100019.84;;;0.47;63.79
68137;BME280;54939;50.826;9.030;2022-12-18T02:16:14;100018.06;;;0.48;63.45
68137;BME280;54939;50.826;9.030;2022-12-18T02:16:51;100021.47;;;0.50;63.59
68137;BME280;54939;50.826;9.030;2022-12-18T02:17:23;100017.06;;;0.50;63.81
68137;BME280;54939;50.826;9.030;2022-12-18T02:18:03;100014.56;;;0.47;63.60
68137;BME280;54939;50.826;9.030;2022-12-18T02:18:36;100012.91;;;0.45;63.28
68137;BME280;54939;50.826;9.030;2022-12-18T02:19:14;100012.06;;;0.44;63.96
68137;BME280;54939;50.826;9.030;2022-12-18T02:20:39;100017.22;;;0.47;63.82
68137;BME280;54939;50.826;9.030;2022-12-18T02:21:20;100012.91;;;0.45;63.73
68137;BME280;54939;50.826;9.030;2022-12-18T02:21:57;100018.97;;;0.47;64.13
68137;BME280;54939;50.826;9.030;2022-12-18T02:25:05;100006.47;;;0.53;63.70
68137;BME280;54939;50.826;9.030;2022-12-18T02:25:40;100006.47;;;0.53;64.01
68137;BME280;54939;50.826;9.030;2022-12-18T02:26:15;100005.66;;;0.51;64.04
68137;BME280;54939;50.826;9.030;2022-12-18T02:26:52;100001.34;;;0.49;63.05
68137;BME280;54939;50.826;9.030;2022-12-18T02:27:24;100002.31;;;0.48;63.47
68137;BME280;54939;50.826;9.030;2022-12-18T02:27:54;100008.47;;;0.47;64.19
68137;BME280;54939;50.826;9.030;2022-12-18T02:28:28;100012.06;;;0.44;64.19
68137;BME280;54939;50.826;9.030;2022-12-18T02:29:02;100002.50;;;0.42;64.12
68137;BME280;54939;50.826;9.030;2022-12-18T02:29:39;100006.06;;;0.41;63.81
68137;BME280;54939;50.826;9.030;2022-12-18T02:30:10;100006.94;;;0.41;63.72
68137;BME280;54939;50.826;9.030;2022-12-18T02:30:41;100014.72;;;0.43;64.40
68137;BME280;54939;50.826;9.030;2022-12-18T02:31:13;100013.88;;;0.42;64.18
68137;BME280;54939;50.826;9.030;2022-12-18T02:31:45;100004.22;;;0.43;64.23
68137;BME280;54939;50.826;9.030;2022-12-18T02:32:18;100006.00;;;0.42;63.87
68137;BME280;54939;50.826;9.030;2022-12-18T02:32:50;100003.38;;;0.42;63.63
68137;BME280;54939;50.826;9.030;2022-12-18T02:33:22;100009.47;;;0.43;64.05
68137;BME280;54939;50.826;9.030;2022-12-18T02:33:54;100016.59;;;0.41;63.72
68137;BME280;54939;50.826;9.030;2022-12-18T02:34:27;100013.88;;;0.42;64.06
68137;BME280;54939;50.826;9.030;2022-12-18T02:34:58;100008.72;;;0.41;63.66
68137;BME280;54939;50.826;9.030;2022-12-18T02:35:29;100020.84;;;0.43;63.79
68137;BME280;54939;50.826;9.030;2022-12-18T02:36:00;100018.94;;;0.48;63.30
68137;BME280;54939;50.826;9.030;2022-12-18T02:36:31;100021.59;;;0.47;63.43
68137;BME280;54939;50.826;9.030;2022-12-18T02:37:03;100017.25;;;0.46;63.85
68137;BME280;54939;50.826;9.030;2022-12-18T02:37:35;100017.06;;;0.50;64.18
68137;BME280;54939;50.826;9.030;2022-12-18T02:38:07;100014.44;;;0.50;64.19
68137;BME280;54939;50.826;9.030;2022-12-18T02:38:37;100014.56;;;0.47;64.21
68137;BME280;54939;50.826;9.030;2022-12-18T02:39:09;100004.13;;;0.46;63.76
68137;BME280;54939;50.826;9.030;2022-12-18T02:39:41;100005.09;;;0.43;63.38
68137;BME280;54939;50.826;9.030;2022-12-18T02:40:13;100007.75;;;0.42;63.71
68137;BME280;54939;50.826;9.030;2022-12-18T02:40:43;100006.94;;;0.41;63.83
68137;BME280;54939;50.826;9.030;2022-12-18T02:41:14;100000.75;;;0.42;63.83
68137;BME280;54939;50.826;9.030;2022-12-18T02:41:46;100006.94;;;0.41;63.67
68137;BME280;54939;50.826;9.030;2022-12-18T02:42:17;100004.22;;;0.43;64.15
68137;BME280;54939;50.826;9.030;2022-12-18T02:42:48;100001.59;;;0.43;63.94
68137;BME280;54939;50.826;9.030;2022-12-18T02:43:19;100004.22;;;0.43;64.17
68137;BME280;54939;50.826;9.030;2022-12-18T02:43:52;100004.22;;;0.43;64.11
68137;BME280;54939;50.826;9.030;2022-12-18T02:44:23;99994.56;;;0.43;64.22
68137;BME280;54939;50.826;9.030;2022-12-18T02:44:53;100001.59;;;0.43;63.66
68137;BME280;54939;50.826;9.030;2022-12-18T02:45:23;99998.97;;;0.43;63.96
68137;BME280;54939;50.826;9.030;2022-12-18T02:45:54;99988.47;;;0.43;64.22
68137;BME280;54939;50.826;9.030;2022-12-18T02:46:56;99988.41;;;0.44;63.72
68137;BME280;54939;50.826;9.030;2022-12-18T02:47:29;99992.81;;;0.44;63.71
68137;BME280;54939;50.826;9.030;2022-12-18T02:48:01;99986.69;;;0.43;63.91
68137;BME280;54939;50.826;9.030;2022-12-18T02:48:32;99993.72;;;0.43;64.23
68137;BME280;54939;50.826;9.030;2022-12-18T02:49:12;99987.59;;;0.42;63.96
68137;BME280;54939;50.826;9.030;2022-12-18T02:49:45;99999.88;;;0.42;64.29
68137;BME280;54939;50.826;9.030;2022-12-18T02:50:22;99995.38;;;0.45;64.00
68137;BME280;54939;50.826;9.030;2022-12-18T02:53:29;100004.19;;;0.44;63.64
68137;BME280;54939;50.826;9.030;2022-12-18T02:54:05;100004.19;;;0.44;63.62
68137;BME280;54939;50.826;9.030;2022-12-18T02:56:16;100000.59;;;0.47;63.30
68137;BME280;54939;50.826;9.030;2022-12-18T02:56:51;99998.88;;;0.46;63.69
68137;BME280;54939;50.826;9.030;2022-12-18T02:58:52;100008.47;;;0.47;63.09
68137;BME280;54939;50.826;9.030;2022-12-18T02:59:38;100004.22;;;0.43;63.00
68137;BME280;54939;50.826;9.030;2022-12-18T03:00:14;99997.97;;;0.47;63.08
68137;BME280;54939;50.826;9.030;2022-12-18T03:00:51;99994.53;;;0.45;62.90
68137;BME280;54939;50.826;9.030;2022-12-18T03:02:09;99998.72;;;0.49;63.85
68137;BME280;54939;50.826;9.030;2022-12-18T03:02:46;99995.31;;;0.47;63.15
68137;BME280;54939;50.826;9.030;2022-12-18T03:03:39;100006.69;;;0.47;63.40
68137;BME280;54939;50.826;9.030;2022-12-18T03:05:13;100012.00;;;0.46;63.24
68137;BME280;54939;50.826;9.030;2022-12-18T03:05:55;100003.31;;;0.44;63.53
68137;BME280;54939;50.826;9.030;2022-12-18T03:06:28;100005.09;;;0.43;63.93